sensor_id;sensor_type;location;lat;lon;timestamp;P1;durP1;ratioP1;P2;durP2;ratioP2
37559;SDS011;23398;50.928;7.084;2023-12-29T00:01:14;2.08;;;0.75;;
37559;SDS011;23398;50.928;7.084;2023-12-29T00:03:40;1.00;;;0.70;;
37559;SDS011;23398;50.928;7.084;2023-12-29T00:06:06;2.10;;;0.90;;
37559;SDS011;23398;50.928;7.084;2023-12-29T00:08:31;1.42;;;0.77;;
37559;SDS011;23398;50.928;7.084;2023-12-29T00:10:57;2.00;;;0.90;;
37559;SDS011;23398;50.928;7.084;2023-12-29T00:13:23;1.35;;;0.95;;
37559;SDS011;23398;50.928;7.084;2023-12-29T00:15:53;1.42;;;0.80;;
37559;SDS011;23398;50.928;7.084;2023-12-29T00:18:19;1.23;;;0.80;;
37559;SDS011;23398;50.928;7.084;2023-12-29T00:20:45;1.02;;;0.90;;
37559;SDS011;23398;50.928;7.084;2023-12-29T00:23:11;1.58;;;0.90;;
37559;SDS011;23398;50.928;7.084;2023-12-29T00:25:36;2.05;;;0.90;;
37559;SDS011;23398;50.928;7.084;2023-12-29T00:28:03;2.15;;;0.98;;
37559;SDS011;23398;50.928;7.084;2023-12-29T00:30:29;2.22;;;0.88;;
37559;SDS011;23398;50.928;7.084;2023-12-29T00:32:54;2.65;;;1.00;;
37559;SDS011;23398;50.928;7.084;2023-12-29T00:35:20;0.70;;;0.70;;
37559;SDS011;23398;50.928;7.084;2023-12-29T00:37:46;2.15;;;0.95;;
37559;SDS011;23398;50.928;7.084;2023-12-29T00:40:11;3.15;;;1.00;;
37559;SDS011;23398;50.928;7.084;2023-12-29T00:42:38;1.52;;;0.90;;
37559;SDS011;23398;50.928;7.084;2023-12-29T00:45:05;1.52;;;0.90;;
37559;SDS011;23398;50.928;7.084;2023-12-29T00:47:31;5.20;;;1.27;;
37559;SDS011;23398;50.928;7.084;2023-12-29T00:49:56;1.30;;;0.95;;
37559;SDS011;23398;50.928;7.084;2023-12-29T00:52:22;1.08;;;0.80;;
37559;SDS011;23398;50.928;7.084;2023-12-29T00:54:47;2.92;;;1.00;;
37559;SDS011;23398;50.928;7.084;2023-12-29T00:57:13;1.58;;;1.00;;
37559;SDS011;23398;50.928;7.084;2023-12-29T00:59:38;1.52;;;1.00;;
37559;SDS011;23398;50.928;7.084;2023-12-29T01:02:08;1.95;;;1.00;;
37559;SDS011;23398;50.928;7.084;2023-12-29T01:04:36;1.80;;;1.08;;
37559;SDS011;23398;50.928;7.084;2023-12-29T01:07:04;2.40;;;1.10;;
37559;SDS011;23398;50.928;7.084;2023-12-29T01:09:29;2.08;;;1.00;;
37559;SDS011;23398;50.928;7.084;2023-12-29T01:11:55;2.95;;;1.00;;
37559;SDS011;23398;50.928;7.084;2023-12-29T01:14:20;4.72;;;1.30;;
37559;SDS011;23398;50.928;7.084;2023-12-29T01:16:46;3.38;;;1.00;;
37559;SDS011;23398;50.928;7.084;2023-12-29T01:19:11;1.45;;;0.93;;
37559;SDS011;23398;50.928;7.084;2023-12-29T01:21:37;1.77;;;1.10;;
37559;SDS011;23398;50.928;7.084;2023-12-29T01:24:03;1.80;;;0.98;;
37559;SDS011;23398;50.928;7.084;2023-12-29T01:26:29;1.83;;;0.90;;
37559;SDS011;23398;50.928;7.084;2023-12-29T01:28:55;2.85;;;1.50;;
37559;SDS011;23398;50.928;7.084;2023-12-29T01:31:21;2.05;;;1.10;;
37559;SDS011;23398;50.928;7.084;2023-12-29T01:33:47;4.07;;;1.50;;
37559;SDS011;23398;50.928;7.084;2023-12-29T01:36:19;1.77;;;1.10;;
37559;SDS011;23398;50.928;7.084;2023-12-29T01:38:44;1.73;;;1.10;;
37559;SDS011;23398;50.928;7.084;2023-12-29T01:41:10;2.35;;;1.27;;
37559;SDS011;23398;50.928;7.084;2023-12-29T01:43:35;3.47;;;1.10;;
37559;SDS011;23398;50.928;7.084;2023-12-29T01:46:01;2.03;;;1.33;;
37559;SDS011;23398;50.928;7.084;2023-12-29T01:48:27;2.75;;;1.27;;
37559;SDS011;23398;50.928;7.084;2023-12-29T01:50:53;1.85;;;1.10;;
37559;SDS011;23398;50.928;7.084;2023-12-29T01:53:20;2.30;;;1.02;;
37559;SDS011;23398;50.928;7.084;2023-12-29T01:55:46;2.13;;;1.00;;
37559;SDS011;23398;50.928;7.084;2023-12-29T01:58:12;2.00;;;1.10;;
37559;SDS011;23398;50.928;7.084;2023-12-29T02:00:38;1.98;;;1.08;;
37559;SDS011;23398;50.928;7.084;2023-12-29T02:03:05;1.40;;;0.98;;
37559;SDS011;23398;50.928;7.084;2023-12-29T02:05:30;2.03;;;1.20;;
37559;SDS011;23398;50.928;7.084;2023-12-29T02:08:00;1.15;;;0.90;;
37559;SDS011;23398;50.928;7.084;2023-12-29T02:10:27;1.92;;;0.90;;
37559;SDS011;23398;50.928;7.084;2023-12-29T02:12:53;3.05;;;1.48;;
37559;SDS011;23398;50.928;7.084;2023-12-29T02:15:22;2.28;;;1.00;;
37559;SDS011;23398;50.928;7.084;2023-12-29T02:17:49;2.03;;;1.15;;
37559;SDS011;23398;50.928;7.084;2023-12-29T02:20:27;2.70;;;1.20;;
37559;SDS011;23398;50.928;7.084;2023-12-29T02:22:54;2.00;;;1.00;;
37559;SDS011;23398;50.928;7.084;2023-12-29T02:25:20;1.45;;;0.98;;
37559;SDS011;23398;50.928;7.084;2023-12-29T02:27:57;3.30;;;1.30;;
37559;SDS011;23398;50.928;7.084;2023-12-29T02:33:07;2.05;;;1.13;;
37559;SDS011;23398;50.928;7.084;2023-12-29T02:35:36;5.05;;;1.13;;
37559;SDS011;23398;50.928;7.084;2023-12-29T02:38:06;3.28;;;1.20;;
37559;SDS011;23398;50.928;7.084;2023-12-29T02:40:31;2.95;;;1.20;;
37559;SDS011;23398;50.928;7.084;2023-12-29T02:42:57;3.15;;;1.15;;
37559;SDS011;23398;50.928;7.084;2023-12-29T02:45:23;2.55;;;1.13;;
37559;SDS011;23398;50.928;7.084;2023-12-29T02:47:49;3.53;;;1.05;;
37559;SDS011;23398;50.928;7.084;2023-12-29T02:50:15;1.80;;;1.00;;
37559;SDS011;23398;50.928;7.084;2023-12-29T02:52:41;4.60;;;1.30;;
37559;SDS011;23398;50.928;7.084;2023-12-29T02:55:07;6.28;;;1.30;;
37559;SDS011;23398;50.928;7.084;2023-12-29T02:57:32;1.80;;;1.00;;
37559;SDS011;23398;50.928;7.084;2023-12-29T02:59:58;2.40;;;1.02;;
37559;SDS011;23398;50.928;7.084;2023-12-29T03:02:24;2.53;;;1.27;;
37559;SDS011;23398;50.928;7.084;2023-12-29T03:04:50;2.47;;;1.13;;
37559;SDS011;23398;50.928;7.084;2023-12-29T03:07:16;1.90;;;1.00;;
37559;SDS011;23398;50.928;7.084;2023-12-29T03:09:41;2.72;;;1.20;;
37559;SDS011;23398;50.928;7.084;2023-12-29T03:12:07;3.28;;;1.27;;
37559;SDS011;23398;50.928;7.084;2023-12-29T03:14:33;2.20;;;1.00;;
37559;SDS011;23398;50.928;7.084;2023-12-29T03:16:58;1.85;;;1.00;;
37559;SDS011;23398;50.928;7.084;2023-12-29T03:19:24;2.33;;;1.08;;
37559;SDS011;23398;50.928;7.084;2023-12-29T03:21:50;1.58;;;1.00;;
37559;SDS011;23398;50.928;7.084;2023-12-29T03:24:17;2.40;;;1.10;;
37559;SDS011;23398;50.928;7.084;2023-12-29T03:26:43;3.03;;;1.10;;
37559;SDS011;23398;50.928;7.084;2023-12-29T03:29:08;2.05;;;1.17;;
37559;SDS011;23398;50.928;7.084;2023-12-29T03:31:35;2.15;;;1.00;;
37559;SDS011;23398;50.928;7.084;2023-12-29T03:34:00;2.80;;;1.08;;
37559;SDS011;23398;50.928;7.084;2023-12-29T03:36:26;2.75;;;1.00;;
37559;SDS011;23398;50.928;7.084;2023-12-29T03:38:51;2.97;;;1.10;;
37559;SDS011;23398;50.928;7.084;2023-12-29T03:41:17;1.75;;;1.00;;
37559;SDS011;23398;50.928;7.084;2023-12-29T03:43:43;1.90;;;1.10;;
37559;SDS011;23398;50.928;7.084;2023-12-29T03:46:16;1.92;;;1.15;;
37559;SDS011;23398;50.928;7.084;2023-12-29T03:48:45;1.67;;;1.00;;
37559;SDS011;23398;50.928;7.084;2023-12-29T03:51:11;1.50;;;1.00;;
37559;SDS011;23398;50.928;7.084;2023-12-29T03:53:38;3.17;;;1.23;;
37559;SDS011;23398;50.928;7.084;2023-12-29T03:56:07;2.83;;;1.10;;
37559;SDS011;23398;50.928;7.084;2023-12-29T03:58:33;3.35;;;1.25;;
37559;SDS011;23398;50.928;7.084;2023-12-29T04:01:00;2.65;;;1.20;;
37559;SDS011;23398;50.928;7.084;2023-12-29T04:03:25;1.85;;;1.00;;
37559;SDS011;23398;50.928;7.084;2023-12-29T04:05:51;1.83;;;1.00;;
37559;SDS011;23398;50.928;7.084;2023-12-29T04:08:16;1.98;;;1.15;;
37559;SDS011;23398;50.928;7.084;2023-12-29T04:10:42;3.22;;;1.02;;
37559;SDS011;23398;50.928;7.084;2023-12-29T04:13:08;2.50;;;1.00;;
37559;SDS011;23398;50.928;7.084;2023-12-29T04:15:33;2.55;;;1.10;;
37559;SDS011;23398;50.928;7.084;2023-12-29T04:17:59;2.60;;;1.10;;
37559;SDS011;23398;50.928;7.084;2023-12-29T04:20:24;2.20;;;1.02;;
37559;SDS011;23398;50.928;7.084;2023-12-29T04:22:50;2.05;;;0.85;;
37559;SDS011;23398;50.928;7.084;2023-12-29T04:25:15;2.22;;;1.08;;
37559;SDS011;23398;50.928;7.084;2023-12-29T04:27:41;2.60;;;1.15;;
37559;SDS011;23398;50.928;7.084;2023-12-29T04:30:07;3.40;;;1.10;;
37559;SDS011;23398;50.928;7.084;2023-12-29T04:32:32;1.85;;;1.00;;
37559;SDS011;23398;50.928;7.084;2023-12-29T04:34:58;3.20;;;1.10;;
37559;SDS011;23398;50.928;7.084;2023-12-29T04:37:24;3.30;;;1.27;;
37559;SDS011;23398;50.928;7.084;2023-12-29T04:39:49;2.55;;;1.05;;
37559;SDS011;23398;50.928;7.084;2023-12-29T04:42:15;1.77;;;0.82;;
37559;SDS011;23398;50.928;7.084;2023-12-29T04:44:41;2.67;;;1.00;;
37559;SDS011;23398;50.928;7.084;2023-12-29T04:47:07;2.90;;;1.30;;
37559;SDS011;23398;50.928;7.084;2023-12-29T04:49:32;3.42;;;1.00;;
37559;SDS011;23398;50.928;7.084;2023-12-29T04:51:58;1.80;;;1.10;;
37559;SDS011;23398;50.928;7.084;2023-12-29T04:54:24;2.47;;;1.10;;
37559;SDS011;23398;50.928;7.084;2023-12-29T04:56:49;2.35;;;1.10;;
37559;SDS011;23398;50.928;7.084;2023-12-29T04:59:15;2.33;;;1.05;;
37559;SDS011;23398;50.928;7.084;2023-12-29T05:01:41;3.40;;;1.52;;
37559;SDS011;23398;50.928;7.084;2023-12-29T05:04:06;2.90;;;1.10;;
37559;SDS011;23398;50.928;7.084;2023-12-29T05:06:32;2.38;;;1.00;;
37559;SDS011;23398;50.928;7.084;2023-12-29T05:08:57;4.72;;;1.25;;
37559;SDS011;23398;50.928;7.084;2023-12-29T05:11:23;2.10;;;1.30;;
37559;SDS011;23398;50.928;7.084;2023-12-29T05:13:49;2.95;;;1.20;;
37559;SDS011;23398;50.928;7.084;2023-12-29T05:16:15;3.75;;;1.50;;
37559;SDS011;23398;50.928;7.084;2023-12-29T05:18:41;2.95;;;1.20;;
37559;SDS011;23398;50.928;7.084;2023-12-29T05:21:13;3.35;;;1.20;;
37559;SDS011;23398;50.928;7.084;2023-12-29T05:23:46;2.97;;;1.10;;
37559;SDS011;23398;50.928;7.084;2023-12-29T05:26:12;3.17;;;1.40;;
37559;SDS011;23398;50.928;7.084;2023-12-29T05:28:39;2.65;;;1.00;;
37559;SDS011;23398;50.928;7.084;2023-12-29T05:31:05;1.70;;;1.10;;
37559;SDS011;23398;50.928;7.084;2023-12-29T05:33:31;2.25;;;1.10;;
37559;SDS011;23398;50.928;7.084;2023-12-29T05:35:57;2.50;;;1.00;;
37559;SDS011;23398;50.928;7.084;2023-12-29T05:38:23;2.53;;;1.30;;
37559;SDS011;23398;50.928;7.084;2023-12-29T05:40:49;3.75;;;1.10;;
37559;SDS011;23398;50.928;7.084;2023-12-29T05:43:15;4.53;;;1.20;;
37559;SDS011;23398;50.928;7.084;2023-12-29T05:45:42;3.63;;;1.20;;
37559;SDS011;23398;50.928;7.084;2023-12-29T05:48:08;2.35;;;1.00;;
37559;SDS011;23398;50.928;7.084;2023-12-29T05:50:33;2.30;;;1.10;;
37559;SDS011;23398;50.928;7.084;2023-12-29T05:52:59;3.00;;;1.10;;
37559;SDS011;23398;50.928;7.084;2023-12-29T05:55:24;1.55;;;0.93;;
37559;SDS011;23398;50.928;7.084;2023-12-29T05:57:50;3.47;;;1.02;;
37559;SDS011;23398;50.928;7.084;2023-12-29T06:00:15;2.03;;;1.00;;
37559;SDS011;23398;50.928;7.084;2023-12-29T06:02:41;2.42;;;0.85;;
37559;SDS011;23398;50.928;7.084;2023-12-29T06:05:10;2.38;;;1.00;;
37559;SDS011;23398;50.928;7.084;2023-12-29T06:07:36;2.22;;;1.13;;
37559;SDS011;23398;50.928;7.084;2023-12-29T06:10:01;2.22;;;0.90;;
37559;SDS011;23398;50.928;7.084;2023-12-29T06:12:27;2.65;;;0.95;;
37559;SDS011;23398;50.928;7.084;2023-12-29T06:14:53;1.70;;;1.10;;
37559;SDS011;23398;50.928;7.084;2023-12-29T06:17:19;2.63;;;1.10;;
37559;SDS011;23398;50.928;7.084;2023-12-29T06:19:44;3.40;;;1.30;;
37559;SDS011;23398;50.928;7.084;2023-12-29T06:22:10;3.95;;;1.00;;
37559;SDS011;23398;50.928;7.084;2023-12-29T06:24:39;3.63;;;0.93;;
37559;SDS011;23398;50.928;7.084;2023-12-29T06:27:07;3.42;;;1.13;;
37559;SDS011;23398;50.928;7.084;2023-12-29T06:29:33;1.80;;;0.75;;
37559;SDS011;23398;50.928;7.084;2023-12-29T06:31:59;3.13;;;1.00;;
37559;SDS011;23398;50.928;7.084;2023-12-29T06:34:25;2.22;;;1.00;;
37559;SDS011;23398;50.928;7.084;2023-12-29T06:36:51;2.17;;;1.00;;
37559;SDS011;23398;50.928;7.084;2023-12-29T06:39:17;1.45;;;0.90;;
37559;SDS011;23398;50.928;7.084;2023-12-29T06:41:42;1.52;;;0.95;;
37559;SDS011;23398;50.928;7.084;2023-12-29T06:44:08;1.73;;;0.82;;
37559;SDS011;23398;50.928;7.084;2023-12-29T06:46:34;1.40;;;0.90;;
37559;SDS011;23398;50.928;7.084;2023-12-29T06:49:02;1.52;;;0.80;;
37559;SDS011;23398;50.928;7.084;2023-12-29T06:51:27;1.88;;;0.95;;
37559;SDS011;23398;50.928;7.084;2023-12-29T06:53:54;2.30;;;1.00;;
37559;SDS011;23398;50.928;7.084;2023-12-29T06:56:19;2.35;;;1.00;;
37559;SDS011;23398;50.928;7.084;2023-12-29T06:58:45;3.45;;;1.13;;
37559;SDS011;23398;50.928;7.084;2023-12-29T07:01:11;3.22;;;1.00;;
37559;SDS011;23398;50.928;7.084;2023-12-29T07:03:37;1.83;;;0.90;;
37559;SDS011;23398;50.928;7.084;2023-12-29T07:06:02;1.27;;;0.88;;
37559;SDS011;23398;50.928;7.084;2023-12-29T07:08:28;1.77;;;0.90;;
37559;SDS011;23398;50.928;7.084;2023-12-29T07:10:54;3.60;;;1.00;;
37559;SDS011;23398;50.928;7.084;2023-12-29T07:13:20;1.95;;;0.80;;
37559;SDS011;23398;50.928;7.084;2023-12-29T07:15:48;1.08;;;0.85;;
37559;SDS011;23398;50.928;7.084;2023-12-29T07:18:14;1.45;;;0.88;;
37559;SDS011;23398;50.928;7.084;2023-12-29T07:20:40;2.20;;;1.00;;
37559;SDS011;23398;50.928;7.084;2023-12-29T07:23:07;2.95;;;1.02;;
37559;SDS011;23398;50.928;7.084;2023-12-29T07:25:33;3.20;;;0.88;;
37559;SDS011;23398;50.928;7.084;2023-12-29T07:27:58;2.08;;;1.00;;
37559;SDS011;23398;50.928;7.084;2023-12-29T07:30:24;2.47;;;0.98;;
37559;SDS011;23398;50.928;7.084;2023-12-29T07:32:51;2.20;;;0.98;;
37559;SDS011;23398;50.928;7.084;2023-12-29T07:35:16;1.52;;;0.88;;
37559;SDS011;23398;50.928;7.084;2023-12-29T07:37:44;3.38;;;0.90;;
37559;SDS011;23398;50.928;7.084;2023-12-29T07:40:10;2.10;;;0.90;;
37559;SDS011;23398;50.928;7.084;2023-12-29T07:42:37;1.77;;;0.95;;
37559;SDS011;23398;50.928;7.084;2023-12-29T07:45:04;1.23;;;0.80;;
37559;SDS011;23398;50.928;7.084;2023-12-29T07:47:30;1.50;;;0.75;;
37559;SDS011;23398;50.928;7.084;2023-12-29T07:49:56;1.63;;;0.70;;
37559;SDS011;23398;50.928;7.084;2023-12-29T07:52:22;1.27;;;0.77;;
37559;SDS011;23398;50.928;7.084;2023-12-29T07:54:48;2.00;;;0.80;;
37559;SDS011;23398;50.928;7.084;2023-12-29T07:57:14;1.25;;;0.80;;
37559;SDS011;23398;50.928;7.084;2023-12-29T07:59:39;2.15;;;0.80;;
37559;SDS011;23398;50.928;7.084;2023-12-29T08:02:05;2.72;;;0.90;;
37559;SDS011;23398;50.928;7.084;2023-12-29T08:04:32;1.85;;;0.80;;
37559;SDS011;23398;50.928;7.084;2023-12-29T08:06:58;2.67;;;1.10;;
37559;SDS011;23398;50.928;7.084;2023-12-29T08:09:25;1.65;;;0.90;;
37559;SDS011;23398;50.928;7.084;2023-12-29T08:11:50;1.45;;;0.90;;
37559;SDS011;23398;50.928;7.084;2023-12-29T08:14:16;1.48;;;0.80;;
37559;SDS011;23398;50.928;7.084;2023-12-29T08:16:42;2.58;;;0.90;;
37559;SDS011;23398;50.928;7.084;2023-12-29T08:19:07;2.72;;;0.80;;
37559;SDS011;23398;50.928;7.084;2023-12-29T08:21:34;2.58;;;0.90;;
37559;SDS011;23398;50.928;7.084;2023-12-29T08:24:00;2.13;;;0.90;;
37559;SDS011;23398;50.928;7.084;2023-12-29T08:26:26;2.20;;;0.90;;
37559;SDS011;23398;50.928;7.084;2023-12-29T08:28:52;2.08;;;0.90;;
37559;SDS011;23398;50.928;7.084;2023-12-29T08:31:18;1.02;;;0.77;;
37559;SDS011;23398;50.928;7.084;2023-12-29T08:33:44;2.67;;;0.80;;
37559;SDS011;23398;50.928;7.084;2023-12-29T08:36:11;1.80;;;1.02;;
37559;SDS011;23398;50.928;7.084;2023-12-29T08:38:37;3.08;;;1.00;;
37559;SDS011;23398;50.928;7.084;2023-12-29T08:41:03;3.97;;;0.82;;
37559;SDS011;23398;50.928;7.084;2023-12-29T08:43:29;1.38;;;0.80;;
37559;SDS011;23398;50.928;7.084;2023-12-29T08:45:55;1.15;;;0.95;;
37559;SDS011;23398;50.928;7.084;2023-12-29T08:48:21;1.42;;;1.00;;
37559;SDS011;23398;50.928;7.084;2023-12-29T08:50:47;1.92;;;1.00;;
37559;SDS011;23398;50.928;7.084;2023-12-29T08:53:12;1.33;;;0.90;;
37559;SDS011;23398;50.928;7.084;2023-12-29T08:55:38;2.50;;;1.10;;
37559;SDS011;23398;50.928;7.084;2023-12-29T08:58:04;4.22;;;1.10;;
37559;SDS011;23398;50.928;7.084;2023-12-29T09:00:30;2.42;;;0.98;;
37559;SDS011;23398;50.928;7.084;2023-12-29T09:02:59;2.72;;;0.95;;
37559;SDS011;23398;50.928;7.084;2023-12-29T09:05:25;2.70;;;1.20;;
37559;SDS011;23398;50.928;7.084;2023-12-29T09:07:50;4.15;;;1.10;;
37559;SDS011;23398;50.928;7.084;2023-12-29T09:10:16;2.78;;;1.02;;
37559;SDS011;23398;50.928;7.084;2023-12-29T09:12:42;3.22;;;1.00;;
37559;SDS011;23398;50.928;7.084;2023-12-29T09:15:08;2.40;;;0.90;;
37559;SDS011;23398;50.928;7.084;2023-12-29T09:17:34;2.67;;;0.95;;
37559;SDS011;23398;50.928;7.084;2023-12-29T09:20:00;1.30;;;0.82;;
37559;SDS011;23398;50.928;7.084;2023-12-29T09:22:26;3.08;;;1.02;;
37559;SDS011;23398;50.928;7.084;2023-12-29T09:24:51;2.83;;;1.00;;
37559;SDS011;23398;50.928;7.084;2023-12-29T09:27:18;5.25;;;0.90;;
37559;SDS011;23398;50.928;7.084;2023-12-29T09:29:44;2.88;;;1.10;;
37559;SDS011;23398;50.928;7.084;2023-12-29T09:32:09;4.38;;;1.05;;
37559;SDS011;23398;50.928;7.084;2023-12-29T09:34:35;2.35;;;1.10;;
37559;SDS011;23398;50.928;7.084;2023-12-29T09:37:00;2.90;;;1.00;;
37559;SDS011;23398;50.928;7.084;2023-12-29T09:39:26;3.47;;;1.02;;
37559;SDS011;23398;50.928;7.084;2023-12-29T09:41:52;2.45;;;1.00;;
37559;SDS011;23398;50.928;7.084;2023-12-29T09:44:22;2.60;;;0.95;;
37559;SDS011;23398;50.928;7.084;2023-12-29T09:46:53;4.70;;;1.60;;
37559;SDS011;23398;50.928;7.084;2023-12-29T09:49:19;2.10;;;1.00;;
37559;SDS011;23398;50.928;7.084;2023-12-29T09:51:45;3.40;;;0.90;;
37559;SDS011;23398;50.928;7.084;2023-12-29T09:54:13;3.00;;;0.93;;
37559;SDS011;23398;50.928;7.084;2023-12-29T09:56:40;2.42;;;1.02;;
37559;SDS011;23398;50.928;7.084;2023-12-29T09:59:08;2.85;;;1.00;;
37559;SDS011;23398;50.928;7.084;2023-12-29T10:01:36;2.33;;;1.00;;
37559;SDS011;23398;50.928;7.084;2023-12-29T10:04:02;2.20;;;1.00;;
37559;SDS011;23398;50.928;7.084;2023-12-29T10:06:28;2.45;;;1.10;;
37559;SDS011;23398;50.928;7.084;2023-12-29T10:08:59;2.10;;;0.90;;
37559;SDS011;23398;50.928;7.084;2023-12-29T10:11:31;1.65;;;0.82;;
37559;SDS011;23398;50.928;7.084;2023-12-29T10:14:00;1.67;;;0.90;;
37559;SDS011;23398;50.928;7.084;2023-12-29T10:16:41;1.88;;;0.82;;
37559;SDS011;23398;50.928;7.084;2023-12-29T10:19:23;1.40;;;0.85;;
37559;SDS011;23398;50.928;7.084;2023-12-29T10:22:00;2.05;;;0.90;;
37559;SDS011;23398;50.928;7.084;2023-12-29T10:24:32;2.28;;;0.80;;
37559;SDS011;23398;50.928;7.084;2023-12-29T10:26:59;1.40;;;0.80;;
37559;SDS011;23398;50.928;7.084;2023-12-29T10:29:26;1.30;;;0.90;;
37559;SDS011;23398;50.928;7.084;2023-12-29T10:31:52;1.67;;;0.70;;
37559;SDS011;23398;50.928;7.084;2023-12-29T10:34:21;1.48;;;0.70;;
37559;SDS011;23398;50.928;7.084;2023-12-29T10:36:57;0.88;;;0.80;;
37559;SDS011;23398;50.928;7.084;2023-12-29T10:39:32;1.13;;;0.80;;
37559;SDS011;23398;50.928;7.084;2023-12-29T10:44:34;0.73;;;0.55;;
37559;SDS011;23398;50.928;7.084;2023-12-29T10:47:10;1.70;;;0.90;;
37559;SDS011;23398;50.928;7.084;2023-12-29T10:49:37;1.95;;;0.82;;
37559;SDS011;23398;50.928;7.084;2023-12-29T10:52:11;2.28;;;0.90;;
37559;SDS011;23398;50.928;7.084;2023-12-29T10:54:41;0.60;;;0.60;;
37559;SDS011;23398;50.928;7.084;2023-12-29T10:57:08;1.38;;;0.73;;
37559;SDS011;23398;50.928;7.084;2023-12-29T10:59:38;1.38;;;0.68;;
37559;SDS011;23398;50.928;7.084;2023-12-29T11:02:04;1.85;;;0.63;;
37559;SDS011;23398;50.928;7.084;2023-12-29T11:04:30;0.93;;;0.70;;
37559;SDS011;23398;50.928;7.084;2023-12-29T11:06:55;1.42;;;0.70;;
37559;SDS011;23398;50.928;7.084;2023-12-29T11:09:27;0.95;;;0.70;;
37559;SDS011;23398;50.928;7.084;2023-12-29T11:11:59;1.05;;;0.70;;
37559;SDS011;23398;50.928;7.084;2023-12-29T11:14:26;0.75;;;0.60;;
37559;SDS011;23398;50.928;7.084;2023-12-29T11:16:55;0.57;;;0.50;;
37559;SDS011;23398;50.928;7.084;2023-12-29T11:19:22;1.10;;;0.60;;
37559;SDS011;23398;50.928;7.084;2023-12-29T11:21:57;1.20;;;0.73;;
37559;SDS011;23398;50.928;7.084;2023-12-29T11:24:23;1.02;;;0.55;;
37559;SDS011;23398;50.928;7.084;2023-12-29T11:26:49;2.85;;;0.93;;
37559;SDS011;23398;50.928;7.084;2023-12-29T11:29:15;1.58;;;0.70;;
37559;SDS011;23398;50.928;7.084;2023-12-29T11:31:41;0.90;;;0.68;;
37559;SDS011;23398;50.928;7.084;2023-12-29T11:34:11;0.90;;;0.65;;
37559;SDS011;23398;50.928;7.084;2023-12-29T11:36:46;0.57;;;0.57;;
37559;SDS011;23398;50.928;7.084;2023-12-29T11:42:02;0.88;;;0.85;;
37559;SDS011;23398;50.928;7.084;2023-12-29T11:44:37;0.68;;;0.60;;
37559;SDS011;23398;50.928;7.084;2023-12-29T11:47:03;0.65;;;0.50;;
37559;SDS011;23398;50.928;7.084;2023-12-29T11:49:43;0.65;;;0.63;;
37559;SDS011;23398;50.928;7.084;2023-12-29T11:52:36;0.75;;;0.60;;
37559;SDS011;23398;50.928;7.084;2023-12-29T11:55:09;1.38;;;0.70;;
37559;SDS011;23398;50.928;7.084;2023-12-29T11:57:43;0.65;;;0.50;;
37559;SDS011;23398;50.928;7.084;2023-12-29T12:00:09;1.27;;;0.52;;
37559;SDS011;23398;50.928;7.084;2023-12-29T12:02:35;0.63;;;0.60;;
37559;SDS011;23398;50.928;7.084;2023-12-29T12:05:01;0.63;;;0.52;;
37559;SDS011;23398;50.928;7.084;2023-12-29T12:10:38;1.15;;;0.60;;
37559;SDS011;23398;50.928;7.084;2023-12-29T12:12:44;0.98;;;0.60;;
37559;SDS011;23398;50.928;7.084;2023-12-29T12:17:58;0.70;;;0.60;;
37559;SDS011;23398;50.928;7.084;2023-12-29T12:20:25;0.45;;;0.45;;
37559;SDS011;23398;50.928;7.084;2023-12-29T12:23:00;1.27;;;0.50;;
37559;SDS011;23398;50.928;7.084;2023-12-29T12:25:27;0.60;;;0.60;;
37559;SDS011;23398;50.928;7.084;2023-12-29T12:27:54;0.40;;;0.40;;
37559;SDS011;23398;50.928;7.084;2023-12-29T12:30:20;0.50;;;0.50;;
37559;SDS011;23398;50.928;7.084;2023-12-29T12:32:47;0.50;;;0.50;;
37559;SDS011;23398;50.928;7.084;2023-12-29T12:35:25;0.55;;;0.50;;
37559;SDS011;23398;50.928;7.084;2023-12-29T12:38:10;0.93;;;0.65;;
37559;SDS011;23398;50.928;7.084;2023-12-29T12:40:45;0.93;;;0.60;;
37559;SDS011;23398;50.928;7.084;2023-12-29T12:43:13;0.70;;;0.60;;
37559;SDS011;23398;50.928;7.084;2023-12-29T12:45:41;0.50;;;0.50;;
37559;SDS011;23398;50.928;7.084;2023-12-29T12:50:57;1.27;;;0.60;;
37559;SDS011;23398;50.928;7.084;2023-12-29T12:53:25;0.60;;;0.40;;
37559;SDS011;23398;50.928;7.084;2023-12-29T12:55:51;0.60;;;0.50;;
37559;SDS011;23398;50.928;7.084;2023-12-29T12:58:19;0.80;;;0.50;;
37559;SDS011;23398;50.928;7.084;2023-12-29T13:00:48;0.45;;;0.45;;
37559;SDS011;23398;50.928;7.084;2023-12-29T13:03:15;0.50;;;0.50;;
37559;SDS011;23398;50.928;7.084;2023-12-29T13:05:41;0.30;;;0.30;;
37559;SDS011;23398;50.928;7.084;2023-12-29T13:08:07;0.98;;;0.60;;
37559;SDS011;23398;50.928;7.084;2023-12-29T13:10:33;0.60;;;0.50;;
37559;SDS011;23398;50.928;7.084;2023-12-29T13:12:59;0.70;;;0.68;;
37559;SDS011;23398;50.928;7.084;2023-12-29T13:15:24;1.02;;;0.55;;
37559;SDS011;23398;50.928;7.084;2023-12-29T13:17:51;0.50;;;0.50;;
37559;SDS011;23398;50.928;7.084;2023-12-29T13:20:20;0.40;;;0.40;;
37559;SDS011;23398;50.928;7.084;2023-12-29T13:22:49;0.35;;;0.35;;
37559;SDS011;23398;50.928;7.084;2023-12-29T13:25:19;1.73;;;0.57;;
37559;SDS011;23398;50.928;7.084;2023-12-29T13:27:49;0.60;;;0.60;;
37559;SDS011;23398;50.928;7.084;2023-12-29T13:30:15;0.35;;;0.35;;
37559;SDS011;23398;50.928;7.084;2023-12-29T13:32:42;1.10;;;0.40;;
37559;SDS011;23398;50.928;7.084;2023-12-29T13:35:21;0.47;;;0.47;;
37559;SDS011;23398;50.928;7.084;2023-12-29T13:40:54;0.40;;;0.40;;
37559;SDS011;23398;50.928;7.084;2023-12-29T13:43:24;0.70;;;0.50;;
37559;SDS011;23398;50.928;7.084;2023-12-29T13:45:50;0.45;;;0.40;;
37559;SDS011;23398;50.928;7.084;2023-12-29T13:48:16;1.02;;;0.75;;
37559;SDS011;23398;50.928;7.084;2023-12-29T13:50:45;0.40;;;0.40;;
37559;SDS011;23398;50.928;7.084;2023-12-29T13:53:16;0.57;;;0.32;;
37559;SDS011;23398;50.928;7.084;2023-12-29T13:55:45;0.47;;;0.47;;
37559;SDS011;23398;50.928;7.084;2023-12-29T13:58:11;0.50;;;0.50;;
37559;SDS011;23398;50.928;7.084;2023-12-29T14:00:38;0.90;;;0.60;;
37559;SDS011;23398;50.928;7.084;2023-12-29T14:03:06;0.50;;;0.50;;
37559;SDS011;23398;50.928;7.084;2023-12-29T14:05:36;0.50;;;0.50;;
37559;SDS011;23398;50.928;7.084;2023-12-29T14:10:51;0.43;;;0.43;;
37559;SDS011;23398;50.928;7.084;2023-12-29T14:13:18;0.82;;;0.70;;
37559;SDS011;23398;50.928;7.084;2023-12-29T14:15:45;0.60;;;0.60;;
37559;SDS011;23398;50.928;7.084;2023-12-29T14:21:28;0.70;;;0.70;;
37559;SDS011;23398;50.928;7.084;2023-12-29T14:24:09;0.85;;;0.50;;
37559;SDS011;23398;50.928;7.084;2023-12-29T14:29:19;2.15;;;0.73;;
37559;SDS011;23398;50.928;7.084;2023-12-29T14:31:46;1.15;;;0.50;;
37559;SDS011;23398;50.928;7.084;2023-12-29T14:34:12;0.93;;;0.50;;
37559;SDS011;23398;50.928;7.084;2023-12-29T14:36:39;1.77;;;0.63;;
37559;SDS011;23398;50.928;7.084;2023-12-29T14:39:06;1.05;;;0.70;;
37559;SDS011;23398;50.928;7.084;2023-12-29T14:41:32;0.68;;;0.68;;
37559;SDS011;23398;50.928;7.084;2023-12-29T14:43:58;0.63;;;0.63;;
37559;SDS011;23398;50.928;7.084;2023-12-29T14:46:24;1.35;;;0.80;;
37559;SDS011;23398;50.928;7.084;2023-12-29T14:48:50;0.80;;;0.80;;
37559;SDS011;23398;50.928;7.084;2023-12-29T14:51:17;2.97;;;0.90;;
37559;SDS011;23398;50.928;7.084;2023-12-29T14:53:44;1.63;;;0.98;;
37559;SDS011;23398;50.928;7.084;2023-12-29T14:56:10;0.95;;;0.80;;
37559;SDS011;23398;50.928;7.084;2023-12-29T14:58:36;1.67;;;0.80;;
37559;SDS011;23398;50.928;7.084;2023-12-29T15:01:02;1.10;;;0.80;;
37559;SDS011;23398;50.928;7.084;2023-12-29T15:03:28;1.63;;;0.80;;
37559;SDS011;23398;50.928;7.084;2023-12-29T15:05:54;1.20;;;0.70;;
37559;SDS011;23398;50.928;7.084;2023-12-29T15:08:20;1.75;;;0.93;;
37559;SDS011;23398;50.928;7.084;2023-12-29T15:10:45;1.27;;;0.90;;
37559;SDS011;23398;50.928;7.084;2023-12-29T15:13:11;1.60;;;0.80;;
37559;SDS011;23398;50.928;7.084;2023-12-29T15:15:37;1.23;;;0.80;;